sensor_id;sensor_type;location;lat;lon;timestamp;P1;durP1;ratioP1;P2;durP2;ratioP2
7150;SDS011;3617;48.836;9.172;2023-02-04T00:00:26;6.93;;;3.83;;
7150;SDS011;3617;48.836;9.172;2023-02-04T00:02:54;5.43;;;3.47;;
7150;SDS011;3617;48.836;9.172;2023-02-04T00:05:20;4.80;;;3.33;;
7150;SDS011;3617;48.836;9.172;2023-02-04T00:07:46;5.17;;;3.20;;
7150;SDS011;3617;48.836;9.172;2023-02-04T00:10:12;5.20;;;3.17;;
7150;SDS011;3617;48.836;9.172;2023-02-04T00:12:38;4.37;;;3.10;;
7150;SDS011;3617;48.836;9.172;2023-02-04T00:15:04;5.37;;;3.40;;
7150;SDS011;3617;48.836;9.172;2023-02-04T00:17:30;4.03;;;3.00;;
7150;SDS011;3617;48.836;9.172;2023-02-04T00:19:56;4.03;;;2.57;;
7150;SDS011;3617;48.836;9.172;2023-02-04T00:22:22;4.60;;;3.37;;
7150;SDS011;3617;48.836;9.172;2023-02-04T00:24:50;4.50;;;3.30;;
7150;SDS011;3617;48.836;9.172;2023-02-04T00:27:16;6.10;;;3.37;;
7150;SDS011;3617;48.836;9.172;2023-02-04T00:29:42;4.07;;;3.17;;
7150;SDS011;3617;48.836;9.172;2023-02-04T00:32:08;5.10;;;3.40;;
7150;SDS011;3617;48.836;9.172;2023-02-04T00:34:34;5.07;;;3.30;;
7150;SDS011;3617;48.836;9.172;2023-02-04T00:37:00;4.67;;;3.77;;
7150;SDS011;3617;48.836;9.172;2023-02-04T00:39:26;5.27;;;3.23;;
7150;SDS011;3617;48.836;9.172;2023-02-04T00:41:52;3.37;;;2.93;;
7150;SDS011;3617;48.836;9.172;2023-02-04T00:44:18;6.83;;;3.10;;
7150;SDS011;3617;48.836;9.172;2023-02-04T00:46:44;5.10;;;2.83;;
7150;SDS011;3617;48.836;9.172;2023-02-04T00:49:12;4.27;;;2.93;;
7150;SDS011;3617;48.836;9.172;2023-02-04T00:51:38;5.33;;;3.10;;
7150;SDS011;3617;48.836;9.172;2023-02-04T00:54:05;4.10;;;2.70;;
7150;SDS011;3617;48.836;9.172;2023-02-04T00:56:31;6.07;;;3.20;;
7150;SDS011;3617;48.836;9.172;2023-02-04T00:58:57;5.17;;;3.07;;
7150;SDS011;3617;48.836;9.172;2023-02-04T01:01:23;4.53;;;3.33;;
7150;SDS011;3617;48.836;9.172;2023-02-04T01:03:49;6.17;;;3.50;;
7150;SDS011;3617;48.836;9.172;2023-02-04T01:06:15;7.47;;;3.30;;
7150;SDS011;3617;48.836;9.172;2023-02-04T01:08:41;5.60;;;3.73;;
7150;SDS011;3617;48.836;9.172;2023-02-04T01:11:07;6.23;;;3.73;;
7150;SDS011;3617;48.836;9.172;2023-02-04T01:13:33;7.00;;;3.80;;
7150;SDS011;3617;48.836;9.172;2023-02-04T01:15:59;4.63;;;3.30;;
7150;SDS011;3617;48.836;9.172;2023-02-04T01:18:25;3.87;;;3.07;;
7150;SDS011;3617;48.836;9.172;2023-02-04T01:20:51;6.47;;;4.00;;
7150;SDS011;3617;48.836;9.172;2023-02-04T01:23:17;5.93;;;3.57;;
7150;SDS011;3617;48.836;9.172;2023-02-04T01:25:43;4.47;;;3.30;;
7150;SDS011;3617;48.836;9.172;2023-02-04T01:28:09;5.13;;;3.33;;
7150;SDS011;3617;48.836;9.172;2023-02-04T01:30:35;5.87;;;3.93;;
7150;SDS011;3617;48.836;9.172;2023-02-04T01:33:01;4.93;;;3.47;;
7150;SDS011;3617;48.836;9.172;2023-02-04T01:35:27;4.20;;;3.53;;
7150;SDS011;3617;48.836;9.172;2023-02-04T01:37:53;6.67;;;4.30;;
7150;SDS011;3617;48.836;9.172;2023-02-04T01:40:19;6.37;;;4.00;;
7150;SDS011;3617;48.836;9.172;2023-02-04T01:42:45;5.67;;;4.17;;
7150;SDS011;3617;48.836;9.172;2023-02-04T01:45:11;7.00;;;3.90;;
7150;SDS011;3617;48.836;9.172;2023-02-04T01:47:37;5.33;;;3.20;;
7150;SDS011;3617;48.836;9.172;2023-02-04T01:50:04;6.30;;;3.07;;
7150;SDS011;3617;48.836;9.172;2023-02-04T01:52:33;3.90;;;2.70;;
7150;SDS011;3617;48.836;9.172;2023-02-04T01:55:00;3.77;;;2.80;;
7150;SDS011;3617;48.836;9.172;2023-02-04T01:57:25;3.63;;;2.27;;
7150;SDS011;3617;48.836;9.172;2023-02-04T01:59:53;4.90;;;2.63;;
7150;SDS011;3617;48.836;9.172;2023-02-04T02:02:36;4.20;;;2.20;;
7150;SDS011;3617;48.836;9.172;2023-02-04T02:05:04;3.20;;;2.10;;
7150;SDS011;3617;48.836;9.172;2023-02-04T02:07:30;6.23;;;2.67;;
7150;SDS011;3617;48.836;9.172;2023-02-04T02:09:56;2.80;;;2.13;;
7150;SDS011;3617;48.836;9.172;2023-02-04T02:12:22;4.07;;;2.77;;
7150;SDS011;3617;48.836;9.172;2023-02-04T02:14:48;4.07;;;2.33;;
7150;SDS011;3617;48.836;9.172;2023-02-04T02:17:14;2.93;;;2.03;;
7150;SDS011;3617;48.836;9.172;2023-02-04T02:19:40;4.67;;;2.10;;
7150;SDS011;3617;48.836;9.172;2023-02-04T02:22:16;3.20;;;2.23;;
7150;SDS011;3617;48.836;9.172;2023-02-04T02:24:43;4.07;;;2.00;;
7150;SDS011;3617;48.836;9.172;2023-02-04T02:27:10;2.60;;;1.73;;
7150;SDS011;3617;48.836;9.172;2023-02-04T02:29:36;2.13;;;1.87;;
7150;SDS011;3617;48.836;9.172;2023-02-04T02:32:03;7.40;;;2.47;;
7150;SDS011;3617;48.836;9.172;2023-02-04T02:34:29;6.80;;;2.40;;
7150;SDS011;3617;48.836;9.172;2023-02-04T02:36:56;6.20;;;2.63;;
7150;SDS011;3617;48.836;9.172;2023-02-04T02:39:23;4.00;;;2.37;;
7150;SDS011;3617;48.836;9.172;2023-02-04T02:41:49;7.37;;;2.33;;
7150;SDS011;3617;48.836;9.172;2023-02-04T02:44:16;6.67;;;2.70;;
7150;SDS011;3617;48.836;9.172;2023-02-04T02:46:42;6.57;;;2.87;;
7150;SDS011;3617;48.836;9.172;2023-02-04T02:49:13;3.80;;;2.10;;
7150;SDS011;3617;48.836;9.172;2023-02-04T02:51:40;7.70;;;2.37;;
7150;SDS011;3617;48.836;9.172;2023-02-04T02:54:09;5.33;;;2.10;;
7150;SDS011;3617;48.836;9.172;2023-02-04T02:56:37;3.03;;;2.40;;
7150;SDS011;3617;48.836;9.172;2023-02-04T02:59:16;6.07;;;2.20;;
7150;SDS011;3617;48.836;9.172;2023-02-04T03:01:42;6.00;;;2.73;;
7150;SDS011;3617;48.836;9.172;2023-02-04T03:04:09;7.03;;;2.20;;
7150;SDS011;3617;48.836;9.172;2023-02-04T03:06:35;4.10;;;2.60;;
7150;SDS011;3617;48.836;9.172;2023-02-04T03:09:01;7.17;;;2.40;;
7150;SDS011;3617;48.836;9.172;2023-02-04T03:11:27;5.60;;;2.20;;
7150;SDS011;3617;48.836;9.172;2023-02-04T03:13:54;6.33;;;2.23;;
7150;SDS011;3617;48.836;9.172;2023-02-04T03:16:20;5.23;;;2.73;;
7150;SDS011;3617;48.836;9.172;2023-02-04T03:18:47;5.20;;;2.20;;
7150;SDS011;3617;48.836;9.172;2023-02-04T03:21:13;5.33;;;2.47;;
7150;SDS011;3617;48.836;9.172;2023-02-04T03:23:39;4.30;;;2.87;;
7150;SDS011;3617;48.836;9.172;2023-02-04T03:26:05;6.53;;;2.90;;
7150;SDS011;3617;48.836;9.172;2023-02-04T03:28:31;4.30;;;2.70;;
7150;SDS011;3617;48.836;9.172;2023-02-04T03:30:58;7.07;;;2.60;;
7150;SDS011;3617;48.836;9.172;2023-02-04T03:33:24;3.80;;;1.90;;
7150;SDS011;3617;48.836;9.172;2023-02-04T03:35:52;8.00;;;2.93;;
7150;SDS011;3617;48.836;9.172;2023-02-04T03:38:19;7.93;;;3.20;;
7150;SDS011;3617;48.836;9.172;2023-02-04T03:40:45;3.20;;;2.40;;
7150;SDS011;3617;48.836;9.172;2023-02-04T03:43:11;5.93;;;2.30;;
7150;SDS011;3617;48.836;9.172;2023-02-04T03:45:37;4.20;;;2.00;;
7150;SDS011;3617;48.836;9.172;2023-02-04T03:48:03;3.60;;;2.00;;
7150;SDS011;3617;48.836;9.172;2023-02-04T03:50:29;5.43;;;1.90;;
7150;SDS011;3617;48.836;9.172;2023-02-04T03:52:55;5.57;;;2.43;;
7150;SDS011;3617;48.836;9.172;2023-02-04T03:55:21;6.33;;;2.10;;
7150;SDS011;3617;48.836;9.172;2023-02-04T03:57:47;6.53;;;2.00;;
7150;SDS011;3617;48.836;9.172;2023-02-04T04:00:13;5.60;;;2.30;;
7150;SDS011;3617;48.836;9.172;2023-02-04T04:02:39;8.00;;;2.57;;
7150;SDS011;3617;48.836;9.172;2023-02-04T04:05:06;5.13;;;2.30;;
7150;SDS011;3617;48.836;9.172;2023-02-04T04:07:32;9.20;;;2.73;;
7150;SDS011;3617;48.836;9.172;2023-02-04T04:09:58;6.77;;;2.67;;
7150;SDS011;3617;48.836;9.172;2023-02-04T04:12:24;5.83;;;2.90;;
7150;SDS011;3617;48.836;9.172;2023-02-04T04:14:50;6.43;;;2.20;;
7150;SDS011;3617;48.836;9.172;2023-02-04T04:17:16;4.33;;;2.67;;
7150;SDS011;3617;48.836;9.172;2023-02-04T04:19:42;8.63;;;2.23;;
7150;SDS011;3617;48.836;9.172;2023-02-04T04:22:09;5.00;;;2.13;;
7150;SDS011;3617;48.836;9.172;2023-02-04T04:24:35;7.90;;;2.30;;
7150;SDS011;3617;48.836;9.172;2023-02-04T04:27:01;3.70;;;2.40;;
7150;SDS011;3617;48.836;9.172;2023-02-04T04:29:27;5.20;;;2.50;;
7150;SDS011;3617;48.836;9.172;2023-02-04T04:31:53;6.90;;;2.77;;
7150;SDS011;3617;48.836;9.172;2023-02-04T04:34:19;3.97;;;2.03;;
7150;SDS011;3617;48.836;9.172;2023-02-04T04:36:45;5.40;;;2.10;;
7150;SDS011;3617;48.836;9.172;2023-02-04T04:39:11;4.13;;;2.60;;
7150;SDS011;3617;48.836;9.172;2023-02-04T04:41:37;3.50;;;2.43;;
7150;SDS011;3617;48.836;9.172;2023-02-04T04:44:03;6.20;;;2.53;;
7150;SDS011;3617;48.836;9.172;2023-02-04T04:46:29;3.60;;;2.30;;
7150;SDS011;3617;48.836;9.172;2023-02-04T04:48:55;4.97;;;2.47;;
7150;SDS011;3617;48.836;9.172;2023-02-04T04:51:21;6.20;;;2.90;;
7150;SDS011;3617;48.836;9.172;2023-02-04T04:53:47;7.43;;;2.57;;
7150;SDS011;3617;48.836;9.172;2023-02-04T04:56:13;8.47;;;3.13;;
7150;SDS011;3617;48.836;9.172;2023-02-04T04:58:39;8.67;;;3.33;;
7150;SDS011;3617;48.836;9.172;2023-02-04T05:01:05;4.97;;;2.57;;
7150;SDS011;3617;48.836;9.172;2023-02-04T05:03:31;6.80;;;2.90;;
7150;SDS011;3617;48.836;9.172;2023-02-04T05:05:57;5.37;;;2.80;;
7150;SDS011;3617;48.836;9.172;2023-02-04T05:08:23;6.20;;;3.03;;
7150;SDS011;3617;48.836;9.172;2023-02-04T05:10:49;6.53;;;3.43;;
7150;SDS011;3617;48.836;9.172;2023-02-04T05:13:15;6.20;;;3.10;;
7150;SDS011;3617;48.836;9.172;2023-02-04T05:15:41;6.73;;;2.97;;
7150;SDS011;3617;48.836;9.172;2023-02-04T05:18:07;10.13;;;3.57;;
7150;SDS011;3617;48.836;9.172;2023-02-04T05:20:33;8.13;;;3.60;;
7150;SDS011;3617;48.836;9.172;2023-02-04T05:22:59;7.53;;;3.30;;
7150;SDS011;3617;48.836;9.172;2023-02-04T05:25:26;6.87;;;3.57;;
7150;SDS011;3617;48.836;9.172;2023-02-04T05:27:52;6.33;;;3.40;;
7150;SDS011;3617;48.836;9.172;2023-02-04T05:30:18;6.47;;;3.87;;
7150;SDS011;3617;48.836;9.172;2023-02-04T05:32:44;9.67;;;3.87;;
7150;SDS011;3617;48.836;9.172;2023-02-04T05:35:10;7.30;;;3.43;;
7150;SDS011;3617;48.836;9.172;2023-02-04T05:37:36;9.20;;;4.80;;
7150;SDS011;3617;48.836;9.172;2023-02-04T05:40:03;6.60;;;4.20;;
7150;SDS011;3617;48.836;9.172;2023-02-04T05:42:30;9.47;;;4.40;;
7150;SDS011;3617;48.836;9.172;2023-02-04T05:44:56;7.57;;;4.63;;
7150;SDS011;3617;48.836;9.172;2023-02-04T05:47:22;10.20;;;5.03;;
7150;SDS011;3617;48.836;9.172;2023-02-04T05:49:48;8.73;;;4.53;;
7150;SDS011;3617;48.836;9.172;2023-02-04T05:52:14;7.00;;;4.50;;
7150;SDS011;3617;48.836;9.172;2023-02-04T05:54:40;12.77;;;4.97;;
7150;SDS011;3617;48.836;9.172;2023-02-04T05:57:06;10.37;;;4.23;;
7150;SDS011;3617;48.836;9.172;2023-02-04T05:59:32;11.07;;;4.23;;
7150;SDS011;3617;48.836;9.172;2023-02-04T06:01:58;8.33;;;4.10;;
7150;SDS011;3617;48.836;9.172;2023-02-04T06:04:24;10.37;;;4.83;;
7150;SDS011;3617;48.836;9.172;2023-02-04T06:06:50;8.87;;;4.20;;
7150;SDS011;3617;48.836;9.172;2023-02-04T06:09:16;7.00;;;4.73;;
7150;SDS011;3617;48.836;9.172;2023-02-04T06:11:42;11.17;;;4.43;;
7150;SDS011;3617;48.836;9.172;2023-02-04T06:14:08;5.90;;;4.00;;
7150;SDS011;3617;48.836;9.172;2023-02-04T06:16:34;10.20;;;4.33;;
7150;SDS011;3617;48.836;9.172;2023-02-04T06:19:00;14.47;;;4.30;;
7150;SDS011;3617;48.836;9.172;2023-02-04T06:21:26;12.10;;;5.43;;
7150;SDS011;3617;48.836;9.172;2023-02-04T06:23:52;11.60;;;5.40;;
7150;SDS011;3617;48.836;9.172;2023-02-04T06:26:18;7.43;;;4.53;;
7150;SDS011;3617;48.836;9.172;2023-02-04T06:28:44;13.23;;;4.87;;
7150;SDS011;3617;48.836;9.172;2023-02-04T06:31:10;9.47;;;5.13;;
7150;SDS011;3617;48.836;9.172;2023-02-04T06:33:36;12.50;;;5.00;;
7150;SDS011;3617;48.836;9.172;2023-02-04T06:36:03;10.80;;;4.63;;
7150;SDS011;3617;48.836;9.172;2023-02-04T06:38:29;7.70;;;4.10;;
7150;SDS011;3617;48.836;9.172;2023-02-04T06:40:55;11.60;;;4.70;;
7150;SDS011;3617;48.836;9.172;2023-02-04T06:43:21;8.37;;;4.80;;
7150;SDS011;3617;48.836;9.172;2023-02-04T06:45:49;10.40;;;5.03;;
7150;SDS011;3617;48.836;9.172;2023-02-04T06:48:15;10.30;;;5.20;;
7150;SDS011;3617;48.836;9.172;2023-02-04T06:50:41;8.40;;;4.87;;
7150;SDS011;3617;48.836;9.172;2023-02-04T06:53:07;14.83;;;5.90;;
7150;SDS011;3617;48.836;9.172;2023-02-04T06:55:33;13.67;;;4.97;;
7150;SDS011;3617;48.836;9.172;2023-02-04T06:57:59;8.87;;;4.80;;
7150;SDS011;3617;48.836;9.172;2023-02-04T07:00:26;15.20;;;4.90;;
7150;SDS011;3617;48.836;9.172;2023-02-04T07:02:54;11.30;;;4.93;;
7150;SDS011;3617;48.836;9.172;2023-02-04T07:05:21;23.13;;;4.80;;
7150;SDS011;3617;48.836;9.172;2023-02-04T07:07:47;14.33;;;4.93;;
7150;SDS011;3617;48.836;9.172;2023-02-04T07:10:14;8.40;;;4.87;;
7150;SDS011;3617;48.836;9.172;2023-02-04T07:12:40;13.23;;;4.77;;
7150;SDS011;3617;48.836;9.172;2023-02-04T07:15:06;9.10;;;4.47;;
7150;SDS011;3617;48.836;9.172;2023-02-04T07:17:33;12.47;;;4.80;;
7150;SDS011;3617;48.836;9.172;2023-02-04T07:19:59;12.77;;;5.10;;
7150;SDS011;3617;48.836;9.172;2023-02-04T07:22:25;8.33;;;5.07;;
7150;SDS011;3617;48.836;9.172;2023-02-04T07:24:51;13.23;;;5.23;;
7150;SDS011;3617;48.836;9.172;2023-02-04T07:27:16;11.63;;;4.57;;
7150;SDS011;3617;48.836;9.172;2023-02-04T07:29:42;17.73;;;5.47;;
7150;SDS011;3617;48.836;9.172;2023-02-04T07:32:08;11.33;;;4.87;;
7150;SDS011;3617;48.836;9.172;2023-02-04T07:34:34;10.87;;;4.83;;
7150;SDS011;3617;48.836;9.172;2023-02-04T07:37:00;11.47;;;4.37;;
7150;SDS011;3617;48.836;9.172;2023-02-04T07:39:26;12.83;;;4.53;;
7150;SDS011;3617;48.836;9.172;2023-02-04T07:41:52;16.70;;;5.87;;
7150;SDS011;3617;48.836;9.172;2023-02-04T07:44:18;8.07;;;3.80;;
7150;SDS011;3617;48.836;9.172;2023-02-04T07:46:44;15.40;;;4.63;;
7150;SDS011;3617;48.836;9.172;2023-02-04T07:49:10;9.90;;;4.43;;
7150;SDS011;3617;48.836;9.172;2023-02-04T07:51:37;8.67;;;4.70;;
7150;SDS011;3617;48.836;9.172;2023-02-04T07:54:03;9.20;;;4.53;;
7150;SDS011;3617;48.836;9.172;2023-02-04T07:56:29;11.83;;;4.70;;
7150;SDS011;3617;48.836;9.172;2023-02-04T07:58:55;12.27;;;4.67;;
7150;SDS011;3617;48.836;9.172;2023-02-04T08:01:21;10.27;;;4.50;;
7150;SDS011;3617;48.836;9.172;2023-02-04T08:03:47;12.13;;;4.70;;
7150;SDS011;3617;48.836;9.172;2023-02-04T08:06:13;8.27;;;3.73;;
7150;SDS011;3617;48.836;9.172;2023-02-04T08:08:39;12.30;;;3.87;;
7150;SDS011;3617;48.836;9.172;2023-02-04T08:11:05;10.17;;;4.57;;
7150;SDS011;3617;48.836;9.172;2023-02-04T08:13:31;13.43;;;4.27;;
7150;SDS011;3617;48.836;9.172;2023-02-04T08:15:57;12.67;;;4.57;;
7150;SDS011;3617;48.836;9.172;2023-02-04T08:18:23;13.60;;;4.97;;
7150;SDS011;3617;48.836;9.172;2023-02-04T08:20:49;8.40;;;4.77;;
7150;SDS011;3617;48.836;9.172;2023-02-04T08:23:15;11.43;;;5.80;;
7150;SDS011;3617;48.836;9.172;2023-02-04T08:25:41;9.40;;;4.47;;
7150;SDS011;3617;48.836;9.172;2023-02-04T08:28:09;8.77;;;4.57;;
7150;SDS011;3617;48.836;9.172;2023-02-04T08:30:35;7.43;;;4.63;;
7150;SDS011;3617;48.836;9.172;2023-02-04T08:33:01;15.83;;;5.13;;
7150;SDS011;3617;48.836;9.172;2023-02-04T08:35:27;10.77;;;4.53;;
7150;SDS011;3617;48.836;9.172;2023-02-04T08:37:53;16.80;;;4.87;;
7150;SDS011;3617;48.836;9.172;2023-02-04T08:40:19;13.83;;;4.70;;
7150;SDS011;3617;48.836;9.172;2023-02-04T08:42:45;12.30;;;5.17;;
7150;SDS011;3617;48.836;9.172;2023-02-04T08:45:11;10.33;;;4.70;;
7150;SDS011;3617;48.836;9.172;2023-02-04T08:47:37;12.07;;;4.73;;
7150;SDS011;3617;48.836;9.172;2023-02-04T08:50:03;16.43;;;4.67;;
7150;SDS011;3617;48.836;9.172;2023-02-04T08:52:29;8.97;;;5.03;;
7150;SDS011;3617;48.836;9.172;2023-02-04T08:54:55;10.30;;;4.83;;
7150;SDS011;3617;48.836;9.172;2023-02-04T08:57:21;14.43;;;4.53;;
7150;SDS011;3617;48.836;9.172;2023-02-04T08:59:47;8.43;;;4.17;;
7150;SDS011;3617;48.836;9.172;2023-02-04T09:02:13;11.27;;;4.90;;
7150;SDS011;3617;48.836;9.172;2023-02-04T09:04:39;15.27;;;5.63;;
7150;SDS011;3617;48.836;9.172;2023-02-04T09:07:05;8.97;;;4.37;;
7150;SDS011;3617;48.836;9.172;2023-02-04T09:09:31;9.33;;;4.40;;
7150;SDS011;3617;48.836;9.172;2023-02-04T09:11:57;10.43;;;4.63;;
7150;SDS011;3617;48.836;9.172;2023-02-04T09:14:23;8.67;;;4.33;;
7150;SDS011;3617;48.836;9.172;2023-02-04T09:16:49;8.57;;;4.87;;
7150;SDS011;3617;48.836;9.172;2023-02-04T09:19:15;13.00;;;5.00;;
7150;SDS011;3617;48.836;9.172;2023-02-04T09:21:43;11.50;;;5.20;;
7150;SDS011;3617;48.836;9.172;2023-02-04T09:24:09;12.63;;;5.07;;
7150;SDS011;3617;48.836;9.172;2023-02-04T09:26:35;13.17;;;4.07;;
7150;SDS011;3617;48.836;9.172;2023-02-04T09:29:01;12.80;;;3.87;;
7150;SDS011;3617;48.836;9.172;2023-02-04T09:31:27;7.50;;;3.50;;
7150;SDS011;3617;48.836;9.172;2023-02-04T09:33:53;6.00;;;3.03;;
7150;SDS011;3617;48.836;9.172;2023-02-04T09:36:19;9.43;;;3.30;;
7150;SDS011;3617;48.836;9.172;2023-02-04T09:38:45;7.63;;;3.00;;
7150;SDS011;3617;48.836;9.172;2023-02-04T09:41:11;6.87;;;2.77;;
7150;SDS011;3617;48.836;9.172;2023-02-04T09:43:38;8.93;;;2.63;;
7150;SDS011;3617;48.836;9.172;2023-02-04T09:46:06;7.77;;;2.53;;
7150;SDS011;3617;48.836;9.172;2023-02-04T09:48:34;9.67;;;2.67;;
7150;SDS011;3617;48.836;9.172;2023-02-04T09:51:06;5.40;;;2.60;;
7150;SDS011;3617;48.836;9.172;2023-02-04T09:53:33;4.83;;;2.37;;
7150;SDS011;3617;48.836;9.172;2023-02-04T09:56:00;13.50;;;3.17;;
7150;SDS011;3617;48.836;9.172;2023-02-04T09:58:27;9.53;;;2.63;;
7150;SDS011;3617;48.836;9.172;2023-02-04T10:01:04;7.93;;;2.73;;
7150;SDS011;3617;48.836;9.172;2023-02-04T10:03:31;7.90;;;2.67;;
7150;SDS011;3617;48.836;9.172;2023-02-04T10:05:59;6.30;;;2.77;;
7150;SDS011;3617;48.836;9.172;2023-02-04T10:08:27;10.93;;;3.03;;
7150;SDS011;3617;48.836;9.172;2023-02-04T10:10:53;7.70;;;2.73;;
7150;SDS011;3617;48.836;9.172;2023-02-04T10:13:20;10.13;;;2.90;;
7150;SDS011;3617;48.836;9.172;2023-02-04T10:15:48;18.77;;;3.50;;
7150;SDS011;3617;48.836;9.172;2023-02-04T10:18:18;7.60;;;2.60;;
7150;SDS011;3617;48.836;9.172;2023-02-04T10:20:44;7.83;;;2.07;;
7150;SDS011;3617;48.836;9.172;2023-02-04T10:23:10;9.13;;;2.57;;
7150;SDS011;3617;48.836;9.172;2023-02-04T10:25:36;7.00;;;2.07;;
7150;SDS011;3617;48.836;9.172;2023-02-04T10:28:02;6.97;;;2.23;;
7150;SDS011;3617;48.836;9.172;2023-02-04T10:30:30;8.47;;;2.23;;
7150;SDS011;3617;48.836;9.172;2023-02-04T10:32:58;9.07;;;2.57;;
7150;SDS011;3617;48.836;9.172;2023-02-04T10:35:24;11.23;;;2.80;;
7150;SDS011;3617;48.836;9.172;2023-02-04T10:38:01;11.37;;;2.33;;
7150;SDS011;3617;48.836;9.172;2023-02-04T10:40:34;8.50;;;2.77;;
7150;SDS011;3617;48.836;9.172;2023-02-04T10:43:12;9.17;;;2.60;;
7150;SDS011;3617;48.836;9.172;2023-02-04T10:45:42;8.63;;;2.30;;
7150;SDS011;3617;48.836;9.172;2023-02-04T10:48:15;5.27;;;2.63;;
7150;SDS011;3617;48.836;9.172;2023-02-04T10:50:42;8.23;;;2.67;;
7150;SDS011;3617;48.836;9.172;2023-02-04T10:53:08;7.13;;;2.40;;
7150;SDS011;3617;48.836;9.172;2023-02-04T10:55:54;8.30;;;2.30;;
7150;SDS011;3617;48.836;9.172;2023-02-04T10:58:25;5.57;;;2.10;;
7150;SDS011;3617;48.836;9.172;2023-02-04T11:00:52;7.27;;;2.43;;
7150;SDS011;3617;48.836;9.172;2023-02-04T11:03:22;10.57;;;2.60;;
7150;SDS011;3617;48.836;9.172;2023-02-04T11:05:48;9.90;;;2.00;;
7150;SDS011;3617;48.836;9.172;2023-02-04T11:08:24;9.77;;;2.20;;
7150;SDS011;3617;48.836;9.172;2023-02-04T11:11:04;7.43;;;2.90;;
7150;SDS011;3617;48.836;9.172;2023-02-04T11:16:30;9.03;;;2.23;;
7150;SDS011;3617;48.836;9.172;2023-02-04T11:24:05;10.30;;;2.60;;
7150;SDS011;3617;48.836;9.172;2023-02-04T11:26:35;10.27;;;2.70;;
7150;SDS011;3617;48.836;9.172;2023-02-04T11:31:29;9.97;;;2.20;;
7150;SDS011;3617;48.836;9.172;2023-02-04T11:34:05;5.73;;;2.53;;
7150;SDS011;3617;48.836;9.172;2023-02-04T11:36:33;7.07;;;2.33;;
7150;SDS011;3617;48.836;9.172;2023-02-04T11:39:05;5.93;;;2.00;;
7150;SDS011;3617;48.836;9.172;2023-02-04T11:41:31;6.87;;;2.60;;
7150;SDS011;3617;48.836;9.172;2023-02-04T11:43:57;6.87;;;2.43;;
7150;SDS011;3617;48.836;9.172;2023-02-04T11:46:26;4.37;;;1.97;;
7150;SDS011;3617;48.836;9.172;2023-02-04T11:48:57;8.70;;;2.33;;
7150;SDS011;3617;48.836;9.172;2023-02-04T11:51:27;4.93;;;2.00;;
7150;SDS011;3617;48.836;9.172;2023-02-04T11:53:54;8.80;;;2.50;;
7150;SDS011;3617;48.836;9.172;2023-02-04T11:56:20;6.63;;;2.00;;
7150;SDS011;3617;48.836;9.172;2023-02-04T11:58:47;5.30;;;1.97;;
7150;SDS011;3617;48.836;9.172;2023-02-04T12:01:17;8.13;;;2.17;;
7150;SDS011;3617;48.836;9.172;2023-02-04T12:03:45;8.13;;;2.20;;
7150;SDS011;3617;48.836;9.172;2023-02-04T12:06:19;5.43;;;2.13;;
7150;SDS011;3617;48.836;9.172;2023-02-04T12:08:45;7.67;;;2.27;;
7150;SDS011;3617;48.836;9.172;2023-02-04T12:11:32;5.20;;;1.90;;
7150;SDS011;3617;48.836;9.172;2023-02-04T12:14:05;9.03;;;2.40;;
7150;SDS011;3617;48.836;9.172;2023-02-04T12:16:44;5.03;;;1.70;;
7150;SDS011;3617;48.836;9.172;2023-02-04T12:19:10;3.57;;;1.53;;
7150;SDS011;3617;48.836;9.172;2023-02-04T12:21:39;6.87;;;1.77;;
7150;SDS011;3617;48.836;9.172;2023-02-04T12:24:06;6.80;;;1.80;;
7150;SDS011;3617;48.836;9.172;2023-02-04T12:26:32;7.33;;;2.20;;
7150;SDS011;3617;48.836;9.172;2023-02-04T12:28:58;4.97;;;1.70;;
7150;SDS011;3617;48.836;9.172;2023-02-04T12:31:26;4.70;;;2.33;;
7150;SDS011;3617;48.836;9.172;2023-02-04T12:33:52;3.90;;;1.63;;
7150;SDS011;3617;48.836;9.172;2023-02-04T12:36:19;5.03;;;1.90;;
7150;SDS011;3617;48.836;9.172;2023-02-04T12:38:45;7.00;;;2.10;;
7150;SDS011;3617;48.836;9.172;2023-02-04T12:41:11;8.10;;;2.50;;
7150;SDS011;3617;48.836;9.172;2023-02-04T12:43:37;7.27;;;2.33;;
7150;SDS011;3617;48.836;9.172;2023-02-04T12:46:03;5.23;;;2.60;;
7150;SDS011;3617;48.836;9.172;2023-02-04T12:48:29;8.60;;;2.27;;
7150;SDS011;3617;48.836;9.172;2023-02-04T12:50:55;4.73;;;1.90;;
7150;SDS011;3617;48.836;9.172;2023-02-04T12:53:21;11.33;;;2.17;;
7150;SDS011;3617;48.836;9.172;2023-02-04T12:55:47;10.30;;;2.87;;
7150;SDS011;3617;48.836;9.172;2023-02-04T12:58:13;9.90;;;2.47;;
7150;SDS011;3617;48.836;9.172;2023-02-04T13:00:39;9.37;;;2.53;;
7150;SDS011;3617;48.836;9.172;2023-02-04T13:03:06;15.67;;;2.80;;
7150;SDS011;3617;48.836;9.172;2023-02-04T13:05:32;8.50;;;2.63;;
7150;SDS011;3617;48.836;9.172;2023-02-04T13:07:59;8.50;;;2.33;;
7150;SDS011;3617;48.836;9.172;2023-02-04T13:10:26;6.90;;;2.20;;
7150;SDS011;3617;48.836;9.172;2023-02-04T13:12:51;11.33;;;3.30;;
7150;SDS011;3617;48.836;9.172;2023-02-04T13:15:18;8.33;;;2.80;;
7150;SDS011;3617;48.836;9.172;2023-02-04T13:17:44;8.73;;;2.67;;
7150;SDS011;3617;48.836;9.172;2023-02-04T13:20:10;5.63;;;2.90;;
7150;SDS011;3617;48.836;9.172;2023-02-04T13:22:36;9.73;;;2.60;;
7150;SDS011;3617;48.836;9.172;2023-02-04T13:25:03;13.53;;;2.87;;
7150;SDS011;3617;48.836;9.172;2023-02-04T13:27:29;9.53;;;2.50;;
7150;SDS011;3617;48.836;9.172;2023-02-04T13:29:55;6.17;;;1.83;;
7150;SDS011;3617;48.836;9.172;2023-02-04T13:32:21;8.77;;;2.83;;
7150;SDS011;3617;48.836;9.172;2023-02-04T13:34:47;5.37;;;2.50;;
7150;SDS011;3617;48.836;9.172;2023-02-04T13:37:13;8.30;;;2.67;;
7150;SDS011;3617;48.836;9.172;2023-02-04T13:39:39;8.23;;;2.60;;
7150;SDS011;3617;48.836;9.172;2023-02-04T13:42:05;7.80;;;2.43;;
7150;SDS011;3617;48.836;9.172;2023-02-04T13:44:31;11.17;;;2.50;;
7150;SDS011;3617;48.836;9.172;2023-02-04T13:46:57;5.27;;;2.23;;
7150;SDS011;3617;48.836;9.172;2023-02-04T13:49:23;6.27;;;2.17;;
7150;SDS011;3617;48.836;9.172;2023-02-04T13:51:49;7.50;;;2.33;;
7150;SDS011;3617;48.836;9.172;2023-02-04T13:54:15;6.13;;;2.20;;
7150;SDS011;3617;48.836;9.172;2023-02-04T13:56:41;4.23;;;2.20;;
7150;SDS011;3617;48.836;9.172;2023-02-04T13:59:07;9.27;;;2.70;;
7150;SDS011;3617;48.836;9.172;2023-02-04T14:01:33;7.30;;;2.63;;
7150;SDS011;3617;48.836;9.172;2023-02-04T14:03:59;6.47;;;2.50;;
7150;SDS011;3617;48.836;9.172;2023-02-04T14:06:25;7.07;;;2.00;;
7150;SDS011;3617;48.836;9.172;2023-02-04T14:08:57;6.97;;;2.23;;
7150;SDS011;3617;48.836;9.172;2023-02-04T14:11:23;5.43;;;2.37;;
7150;SDS011;3617;48.836;9.172;2023-02-04T14:13:49;7.00;;;2.20;;
7150;SDS011;3617;48.836;9.172;2023-02-04T14:16:15;5.60;;;2.50;;
7150;SDS011;3617;48.836;9.172;2023-02-04T14:18:41;6.63;;;2.20;;
7150;SDS011;3617;48.836;9.172;2023-02-04T14:21:07;9.13;;;1.90;;
7150;SDS011;3617;48.836;9.172;2023-02-04T14:23:33;10.53;;;2.50;;
7150;SDS011;3617;48.836;9.172;2023-02-04T14:25:59;6.73;;;2.40;;
7150;SDS011;3617;48.836;9.172;2023-02-04T14:28:25;9.57;;;2.17;;
7150;SDS011;3617;48.836;9.172;2023-02-04T14:30:51;5.90;;;1.83;;
7150;SDS011;3617;48.836;9.172;2023-02-04T14:33:18;3.57;;;1.80;;
7150;SDS011;3617;48.836;9.172;2023-02-04T14:35:44;7.00;;;2.17;;
7150;SDS011;3617;48.836;9.172;2023-02-04T14:38:10;8.10;;;2.53;;
7150;SDS011;3617;48.836;9.172;2023-02-04T14:40:39;5.10;;;1.63;;
7150;SDS011;3617;48.836;9.172;2023-02-04T14:43:06;4.80;;;1.83;;
7150;SDS011;3617;48.836;9.172;2023-02-04T14:45:32;9.13;;;2.40;;
7150;SDS011;3617;48.836;9.172;2023-02-04T14:47:58;4.53;;;1.80;;
7150;SDS011;3617;48.836;9.172;2023-02-04T14:50:25;3.67;;;1.87;;
7150;SDS011;3617;48.836;9.172;2023-02-04T14:52:52;6.17;;;2.10;;
7150;SDS011;3617;48.836;9.172;2023-02-04T14:55:20;5.13;;;1.63;;
7150;SDS011;3617;48.836;9.172;2023-02-04T14:57:46;6.03;;;1.97;;
7150;SDS011;3617;48.836;9.172;2023-02-04T15:00:12;5.47;;;1.83;;
7150;SDS011;3617;48.836;9.172;2023-02-04T15:02:39;4.07;;;2.00;;
7150;SDS011;3617;48.836;9.172;2023-02-04T15:05:05;7.17;;;2.53;;
7150;SDS011;3617;48.836;9.172;2023-02-04T15:07:31;2.73;;;1.53;;
7150;SDS011;3617;48.836;9.172;2023-02-04T15:09:57;3.20;;;1.90;;
7150;SDS011;3617;48.836;9.172;2023-02-04T15:12:23;5.30;;;2.03;;
7150;SDS011;3617;48.836;9.172;2023-02-04T15:14:49;4.80;;;1.83;;
7150;SDS011;3617;48.836;9.172;2023-02-04T15:17:15;5.13;;;2.00;;
7150;SDS011;3617;48.836;9.172;2023-02-04T15:19:42;5.97;;;1.80;;